sensor_id;sensor_type;location;lat;lon;timestamp;P1;durP1;ratioP1;P2;durP2;ratioP2
70543;SDS011;58097;48.364;-1.224;2022-10-26T00:01:26;15.60;;;3.58;;
70543;SDS011;58097;48.364;-1.224;2022-10-26T00:03:53;6.25;;;2.50;;
70543;SDS011;58097;48.364;-1.224;2022-10-26T00:06:20;7.07;;;2.30;;
70543;SDS011;58097;48.364;-1.224;2022-10-26T00:08:48;7.30;;;3.03;;
70543;SDS011;58097;48.364;-1.224;2022-10-26T00:11:15;11.23;;;2.40;;
70543;SDS011;58097;48.364;-1.224;2022-10-26T00:13:41;7.45;;;3.13;;
70543;SDS011;58097;48.364;-1.224;2022-10-26T00:16:09;7.88;;;2.50;;
70543;SDS011;58097;48.364;-1.224;2022-10-26T00:18:39;3.42;;;2.28;;
70543;SDS011;58097;48.364;-1.224;2022-10-26T00:21:05;6.75;;;2.33;;
70543;SDS011;58097;48.364;-1.224;2022-10-26T00:23:31;10.77;;;2.20;;
70543;SDS011;58097;48.364;-1.224;2022-10-26T00:25:57;3.25;;;1.60;;
70543;SDS011;58097;48.364;-1.224;2022-10-26T00:28:22;4.32;;;2.28;;
70543;SDS011;58097;48.364;-1.224;2022-10-26T00:30:48;4.38;;;2.03;;
70543;SDS011;58097;48.364;-1.224;2022-10-26T00:33:14;12.65;;;2.45;;
70543;SDS011;58097;48.364;-1.224;2022-10-26T00:35:39;7.82;;;2.50;;
70543;SDS011;58097;48.364;-1.224;2022-10-26T00:38:04;5.60;;;2.38;;
70543;SDS011;58097;48.364;-1.224;2022-10-26T00:40:30;6.47;;;1.90;;
70543;SDS011;58097;48.364;-1.224;2022-10-26T00:42:55;5.40;;;2.60;;
70543;SDS011;58097;48.364;-1.224;2022-10-26T00:47:55;7.53;;;2.35;;
70543;SDS011;58097;48.364;-1.224;2022-10-26T00:50:25;7.35;;;2.03;;
70543;SDS011;58097;48.364;-1.224;2022-10-26T00:53:01;4.38;;;1.80;;
70543;SDS011;58097;48.364;-1.224;2022-10-26T00:55:31;6.13;;;2.15;;
70543;SDS011;58097;48.364;-1.224;2022-10-26T00:58:01;11.05;;;2.50;;
70543;SDS011;58097;48.364;-1.224;2022-10-26T01:00:30;7.50;;;1.70;;
70543;SDS011;58097;48.364;-1.224;2022-10-26T01:02:56;5.22;;;2.15;;
70543;SDS011;58097;48.364;-1.224;2022-10-26T01:05:23;10.23;;;2.15;;
70543;SDS011;58097;48.364;-1.224;2022-10-26T01:07:50;7.22;;;2.17;;
70543;SDS011;58097;48.364;-1.224;2022-10-26T01:10:15;6.63;;;2.42;;
70543;SDS011;58097;48.364;-1.224;2022-10-26T01:12:42;5.57;;;1.95;;
70543;SDS011;58097;48.364;-1.224;2022-10-26T01:15:08;7.57;;;1.90;;
70543;SDS011;58097;48.364;-1.224;2022-10-26T01:20:36;5.70;;;1.70;;
70543;SDS011;58097;48.364;-1.224;2022-10-26T01:29:11;7.95;;;2.15;;
70543;SDS011;58097;48.364;-1.224;2022-10-26T01:32:01;10.38;;;2.78;;
70543;SDS011;58097;48.364;-1.224;2022-10-26T01:34:36;14.65;;;1.70;;
70543;SDS011;58097;48.364;-1.224;2022-10-26T01:37:19;5.50;;;1.67;;
70543;SDS011;58097;48.364;-1.224;2022-10-26T01:40:10;6.13;;;2.33;;
70543;SDS011;58097;48.364;-1.224;2022-10-26T01:42:41;7.35;;;1.50;;
70543;SDS011;58097;48.364;-1.224;2022-10-26T01:45:12;7.63;;;1.67;;
70543;SDS011;58097;48.364;-1.224;2022-10-26T01:47:39;3.60;;;1.27;;
70543;SDS011;58097;48.364;-1.224;2022-10-26T01:50:05;6.95;;;1.60;;
70543;SDS011;58097;48.364;-1.224;2022-10-26T01:52:32;7.65;;;1.50;;
70543;SDS011;58097;48.364;-1.224;2022-10-26T01:55:42;4.28;;;1.48;;
70543;SDS011;58097;48.364;-1.224;2022-10-26T01:58:03;7.00;;;1.33;;
70543;SDS011;58097;48.364;-1.224;2022-10-26T02:00:40;7.32;;;1.42;;
70543;SDS011;58097;48.364;-1.224;2022-10-26T02:03:14;11.57;;;2.25;;
70543;SDS011;58097;48.364;-1.224;2022-10-26T02:05:56;6.20;;;1.08;;
70543;SDS011;58097;48.364;-1.224;2022-10-26T02:11:00;14.60;;;2.38;;
70543;SDS011;58097;48.364;-1.224;2022-10-26T02:19:41;6.72;;;1.40;;
70543;SDS011;58097;48.364;-1.224;2022-10-26T02:22:26;6.97;;;1.42;;
70543;SDS011;58097;48.364;-1.224;2022-10-26T02:24:57;4.47;;;1.35;;
70543;SDS011;58097;48.364;-1.224;2022-10-26T02:27:29;7.43;;;1.48;;
70543;SDS011;58097;48.364;-1.224;2022-10-26T02:29:58;6.53;;;1.35;;
70543;SDS011;58097;48.364;-1.224;2022-10-26T02:32:27;9.15;;;1.60;;
70543;SDS011;58097;48.364;-1.224;2022-10-26T02:34:58;8.32;;;1.48;;
70543;SDS011;58097;48.364;-1.224;2022-10-26T02:37:25;12.05;;;1.27;;
70543;SDS011;58097;48.364;-1.224;2022-10-26T02:39:52;5.05;;;1.30;;
70543;SDS011;58097;48.364;-1.224;2022-10-26T02:42:20;5.45;;;1.10;;
70543;SDS011;58097;48.364;-1.224;2022-10-26T02:44:48;5.43;;;1.25;;
70543;SDS011;58097;48.364;-1.224;2022-10-26T02:47:15;9.82;;;1.92;;
70543;SDS011;58097;48.364;-1.224;2022-10-26T02:49:41;5.45;;;1.33;;
70543;SDS011;58097;48.364;-1.224;2022-10-26T02:52:51;11.48;;;1.60;;
70543;SDS011;58097;48.364;-1.224;2022-10-26T02:55:19;8.98;;;1.33;;
70543;SDS011;58097;48.364;-1.224;2022-10-26T02:57:50;3.55;;;1.73;;
70543;SDS011;58097;48.364;-1.224;2022-10-26T03:00:21;4.10;;;1.27;;
70543;SDS011;58097;48.364;-1.224;2022-10-26T03:02:50;7.88;;;1.35;;
70543;SDS011;58097;48.364;-1.224;2022-10-26T03:05:19;4.88;;;1.30;;
70543;SDS011;58097;48.364;-1.224;2022-10-26T03:07:47;8.07;;;1.25;;
70543;SDS011;58097;48.364;-1.224;2022-10-26T03:10:13;3.55;;;1.15;;
70543;SDS011;58097;48.364;-1.224;2022-10-26T03:12:38;6.18;;;1.13;;
70543;SDS011;58097;48.364;-1.224;2022-10-26T03:15:04;7.95;;;1.63;;
70543;SDS011;58097;48.364;-1.224;2022-10-26T03:17:29;6.30;;;1.20;;
70543;SDS011;58097;48.364;-1.224;2022-10-26T03:19:55;5.57;;;1.00;;
70543;SDS011;58097;48.364;-1.224;2022-10-26T03:22:20;9.95;;;1.58;;
70543;SDS011;58097;48.364;-1.224;2022-10-26T03:24:46;8.68;;;1.20;;
70543;SDS011;58097;48.364;-1.224;2022-10-26T03:27:12;6.20;;;1.23;;
70543;SDS011;58097;48.364;-1.224;2022-10-26T03:29:38;6.35;;;1.13;;
70543;SDS011;58097;48.364;-1.224;2022-10-26T03:32:04;12.88;;;1.67;;
70543;SDS011;58097;48.364;-1.224;2022-10-26T03:34:30;8.55;;;1.27;;
70543;SDS011;58097;48.364;-1.224;2022-10-26T03:36:55;10.32;;;2.38;;
70543;SDS011;58097;48.364;-1.224;2022-10-26T03:39:20;7.68;;;1.05;;
70543;SDS011;58097;48.364;-1.224;2022-10-26T03:41:46;7.20;;;1.38;;
70543;SDS011;58097;48.364;-1.224;2022-10-26T03:44:12;4.93;;;1.35;;
70543;SDS011;58097;48.364;-1.224;2022-10-26T03:46:37;5.60;;;1.13;;
70543;SDS011;58097;48.364;-1.224;2022-10-26T03:49:02;10.48;;;1.75;;
70543;SDS011;58097;48.364;-1.224;2022-10-26T03:51:28;6.75;;;1.70;;
70543;SDS011;58097;48.364;-1.224;2022-10-26T03:53:53;6.07;;;2.05;;
70543;SDS011;58097;48.364;-1.224;2022-10-26T03:56:19;5.35;;;1.27;;
70543;SDS011;58097;48.364;-1.224;2022-10-26T03:58:44;12.70;;;1.92;;
70543;SDS011;58097;48.364;-1.224;2022-10-26T04:01:09;9.13;;;1.38;;
70543;SDS011;58097;48.364;-1.224;2022-10-26T04:03:35;6.78;;;1.20;;
70543;SDS011;58097;48.364;-1.224;2022-10-26T04:06:00;7.85;;;2.10;;
70543;SDS011;58097;48.364;-1.224;2022-10-26T04:08:26;9.48;;;1.90;;
70543;SDS011;58097;48.364;-1.224;2022-10-26T04:10:51;7.43;;;1.67;;
70543;SDS011;58097;48.364;-1.224;2022-10-26T04:13:17;7.00;;;1.27;;
70543;SDS011;58097;48.364;-1.224;2022-10-26T04:15:42;17.67;;;1.77;;
70543;SDS011;58097;48.364;-1.224;2022-10-26T04:18:08;20.27;;;2.03;;
70543;SDS011;58097;48.364;-1.224;2022-10-26T04:20:33;5.57;;;1.23;;
70543;SDS011;58097;48.364;-1.224;2022-10-26T04:23:04;13.10;;;2.00;;
70543;SDS011;58097;48.364;-1.224;2022-10-26T04:25:31;9.85;;;1.52;;
70543;SDS011;58097;48.364;-1.224;2022-10-26T04:27:57;9.02;;;1.58;;
70543;SDS011;58097;48.364;-1.224;2022-10-26T04:30:23;13.15;;;1.88;;
70543;SDS011;58097;48.364;-1.224;2022-10-26T04:32:49;9.38;;;1.75;;
70543;SDS011;58097;48.364;-1.224;2022-10-26T04:35:14;9.43;;;1.45;;
70543;SDS011;58097;48.364;-1.224;2022-10-26T04:37:40;13.80;;;2.53;;
70543;SDS011;58097;48.364;-1.224;2022-10-26T04:40:05;6.95;;;1.73;;
70543;SDS011;58097;48.364;-1.224;2022-10-26T04:42:30;15.98;;;2.47;;
70543;SDS011;58097;48.364;-1.224;2022-10-26T04:45:03;9.30;;;2.20;;
70543;SDS011;58097;48.364;-1.224;2022-10-26T04:47:29;17.52;;;2.47;;
70543;SDS011;58097;48.364;-1.224;2022-10-26T04:49:54;3.50;;;0.85;;
70543;SDS011;58097;48.364;-1.224;2022-10-26T04:52:20;14.07;;;1.65;;
70543;SDS011;58097;48.364;-1.224;2022-10-26T04:54:45;10.48;;;3.17;;
70543;SDS011;58097;48.364;-1.224;2022-10-26T04:57:10;9.35;;;1.73;;
70543;SDS011;58097;48.364;-1.224;2022-10-26T04:59:36;10.27;;;2.03;;
70543;SDS011;58097;48.364;-1.224;2022-10-26T05:02:01;10.27;;;1.92;;
70543;SDS011;58097;48.364;-1.224;2022-10-26T05:04:26;11.85;;;2.20;;
70543;SDS011;58097;48.364;-1.224;2022-10-26T05:06:52;10.77;;;1.77;;
70543;SDS011;58097;48.364;-1.224;2022-10-26T05:09:17;9.65;;;1.92;;
70543;SDS011;58097;48.364;-1.224;2022-10-26T05:11:43;13.95;;;2.00;;
70543;SDS011;58097;48.364;-1.224;2022-10-26T05:14:08;7.45;;;1.88;;
70543;SDS011;58097;48.364;-1.224;2022-10-26T05:16:34;9.70;;;1.92;;
70543;SDS011;58097;48.364;-1.224;2022-10-26T05:18:59;9.85;;;1.58;;
70543;SDS011;58097;48.364;-1.224;2022-10-26T05:21:25;14.10;;;2.80;;
70543;SDS011;58097;48.364;-1.224;2022-10-26T05:23:50;10.20;;;2.10;;
70543;SDS011;58097;48.364;-1.224;2022-10-26T05:26:19;7.70;;;1.60;;
70543;SDS011;58097;48.364;-1.224;2022-10-26T05:28:45;8.75;;;2.10;;
70543;SDS011;58097;48.364;-1.224;2022-10-26T05:31:10;6.53;;;2.13;;
70543;SDS011;58097;48.364;-1.224;2022-10-26T05:33:36;10.00;;;2.40;;
70543;SDS011;58097;48.364;-1.224;2022-10-26T05:36:01;18.77;;;2.58;;
70543;SDS011;58097;48.364;-1.224;2022-10-26T05:38:27;16.08;;;2.40;;
70543;SDS011;58097;48.364;-1.224;2022-10-26T05:40:53;18.17;;;2.58;;
70543;SDS011;58097;48.364;-1.224;2022-10-26T05:43:19;18.65;;;2.08;;
70543;SDS011;58097;48.364;-1.224;2022-10-26T05:45:46;7.80;;;2.15;;
70543;SDS011;58097;48.364;-1.224;2022-10-26T05:48:11;5.60;;;1.60;;
70543;SDS011;58097;48.364;-1.224;2022-10-26T05:50:36;16.55;;;3.33;;
70543;SDS011;58097;48.364;-1.224;2022-10-26T05:53:02;12.30;;;2.00;;
70543;SDS011;58097;48.364;-1.224;2022-10-26T05:55:27;12.98;;;2.67;;
70543;SDS011;58097;48.364;-1.224;2022-10-26T05:57:53;12.57;;;2.13;;
70543;SDS011;58097;48.364;-1.224;2022-10-26T06:00:20;12.60;;;2.70;;
70543;SDS011;58097;48.364;-1.224;2022-10-26T06:05:20;11.48;;;1.63;;
70543;SDS011;58097;48.364;-1.224;2022-10-26T06:07:48;9.10;;;1.95;;
70543;SDS011;58097;48.364;-1.224;2022-10-26T06:10:14;20.30;;;2.60;;
70543;SDS011;58097;48.364;-1.224;2022-10-26T06:12:40;6.78;;;1.90;;
70543;SDS011;58097;48.364;-1.224;2022-10-26T06:15:06;13.07;;;2.00;;
70543;SDS011;58097;48.364;-1.224;2022-10-26T06:23:08;8.57;;;2.30;;
70543;SDS011;58097;48.364;-1.224;2022-10-26T06:31:18;16.90;;;3.58;;
70543;SDS011;58097;48.364;-1.224;2022-10-26T06:33:44;12.43;;;1.83;;
70543;SDS011;58097;48.364;-1.224;2022-10-26T06:38:35;18.27;;;2.80;;
70543;SDS011;58097;48.364;-1.224;2022-10-26T06:41:03;7.43;;;3.63;;
70543;SDS011;58097;48.364;-1.224;2022-10-26T06:43:30;13.25;;;5.18;;
70543;SDS011;58097;48.364;-1.224;2022-10-26T06:48:31;17.42;;;6.35;;
70543;SDS011;58097;48.364;-1.224;2022-10-26T06:51:06;10.10;;;5.45;;
70543;SDS011;58097;48.364;-1.224;2022-10-26T06:53:40;11.70;;;3.40;;
70543;SDS011;58097;48.364;-1.224;2022-10-26T06:56:12;9.15;;;2.50;;
70543;SDS011;58097;48.364;-1.224;2022-10-26T06:58:38;11.05;;;2.60;;
70543;SDS011;58097;48.364;-1.224;2022-10-26T07:01:04;9.88;;;1.63;;
70543;SDS011;58097;48.364;-1.224;2022-10-26T07:03:30;9.15;;;2.47;;
70543;SDS011;58097;48.364;-1.224;2022-10-26T07:05:55;10.88;;;1.92;;
70543;SDS011;58097;48.364;-1.224;2022-10-26T07:08:21;5.80;;;1.65;;
70543;SDS011;58097;48.364;-1.224;2022-10-26T07:10:47;6.10;;;1.35;;
70543;SDS011;58097;48.364;-1.224;2022-10-26T07:13:12;6.38;;;1.30;;
70543;SDS011;58097;48.364;-1.224;2022-10-26T07:15:38;14.57;;;1.88;;
70543;SDS011;58097;48.364;-1.224;2022-10-26T07:18:05;8.02;;;1.60;;
70543;SDS011;58097;48.364;-1.224;2022-10-26T07:20:34;11.02;;;2.20;;
70543;SDS011;58097;48.364;-1.224;2022-10-26T07:23:04;10.25;;;1.80;;
70543;SDS011;58097;48.364;-1.224;2022-10-26T07:25:35;9.32;;;1.65;;
70543;SDS011;58097;48.364;-1.224;2022-10-26T07:28:04;11.32;;;1.60;;
70543;SDS011;58097;48.364;-1.224;2022-10-26T07:30:34;7.20;;;1.77;;
70543;SDS011;58097;48.364;-1.224;2022-10-26T07:33:04;18.58;;;2.78;;
70543;SDS011;58097;48.364;-1.224;2022-10-26T07:35:34;6.82;;;2.00;;
70543;SDS011;58097;48.364;-1.224;2022-10-26T07:38:00;14.35;;;2.75;;
70543;SDS011;58097;48.364;-1.224;2022-10-26T07:40:26;8.02;;;1.73;;
70543;SDS011;58097;48.364;-1.224;2022-10-26T07:42:55;6.22;;;1.85;;
70543;SDS011;58097;48.364;-1.224;2022-10-26T07:45:21;14.82;;;2.55;;
70543;SDS011;58097;48.364;-1.224;2022-10-26T07:47:46;10.00;;;2.58;;
70543;SDS011;58097;48.364;-1.224;2022-10-26T07:50:13;15.52;;;2.83;;
70543;SDS011;58097;48.364;-1.224;2022-10-26T07:52:38;13.88;;;1.58;;
70543;SDS011;58097;48.364;-1.224;2022-10-26T07:55:05;12.43;;;2.03;;
70543;SDS011;58097;48.364;-1.224;2022-10-26T07:57:35;15.55;;;2.50;;
70543;SDS011;58097;48.364;-1.224;2022-10-26T08:00:00;17.50;;;2.33;;
70543;SDS011;58097;48.364;-1.224;2022-10-26T08:02:26;14.43;;;2.20;;
70543;SDS011;58097;48.364;-1.224;2022-10-26T08:04:51;5.45;;;1.45;;
70543;SDS011;58097;48.364;-1.224;2022-10-26T08:07:16;15.13;;;2.22;;
70543;SDS011;58097;48.364;-1.224;2022-10-26T08:09:42;10.15;;;2.10;;
70543;SDS011;58097;48.364;-1.224;2022-10-26T08:12:07;16.75;;;2.92;;
70543;SDS011;58097;48.364;-1.224;2022-10-26T08:14:32;11.63;;;2.17;;
70543;SDS011;58097;48.364;-1.224;2022-10-26T08:16:58;9.77;;;2.00;;
70543;SDS011;58097;48.364;-1.224;2022-10-26T08:19:23;9.75;;;2.25;;
70543;SDS011;58097;48.364;-1.224;2022-10-26T08:21:49;14.15;;;1.80;;
70543;SDS011;58097;48.364;-1.224;2022-10-26T08:24:14;15.60;;;2.03;;
70543;SDS011;58097;48.364;-1.224;2022-10-26T08:26:39;9.95;;;1.95;;
70543;SDS011;58097;48.364;-1.224;2022-10-26T08:29:05;12.85;;;2.50;;
70543;SDS011;58097;48.364;-1.224;2022-10-26T08:31:31;10.55;;;1.80;;
70543;SDS011;58097;48.364;-1.224;2022-10-26T08:33:56;5.95;;;2.08;;
70543;SDS011;58097;48.364;-1.224;2022-10-26T08:36:22;10.98;;;2.13;;
70543;SDS011;58097;48.364;-1.224;2022-10-26T08:38:49;13.15;;;1.90;;
70543;SDS011;58097;48.364;-1.224;2022-10-26T08:41:16;7.78;;;1.60;;
70543;SDS011;58097;48.364;-1.224;2022-10-26T08:43:48;5.20;;;1.10;;
70543;SDS011;58097;48.364;-1.224;2022-10-26T08:46:19;8.88;;;1.92;;
70543;SDS011;58097;48.364;-1.224;2022-10-26T08:48:50;7.45;;;2.05;;
70543;SDS011;58097;48.364;-1.224;2022-10-26T08:51:21;4.68;;;1.50;;
70543;SDS011;58097;48.364;-1.224;2022-10-26T08:59:49;9.68;;;1.75;;
70543;SDS011;58097;48.364;-1.224;2022-10-26T09:02:17;9.77;;;1.85;;
70543;SDS011;58097;48.364;-1.224;2022-10-26T09:04:43;10.40;;;2.53;;
70543;SDS011;58097;48.364;-1.224;2022-10-26T09:15:10;8.85;;;1.30;;
70543;SDS011;58097;48.364;-1.224;2022-10-26T09:26:02;11.00;;;1.83;;
70543;SDS011;58097;48.364;-1.224;2022-10-26T09:28:33;6.82;;;1.65;;
70543;SDS011;58097;48.364;-1.224;2022-10-26T09:31:02;9.98;;;2.08;;
70543;SDS011;58097;48.364;-1.224;2022-10-26T09:33:29;12.77;;;2.47;;
70543;SDS011;58097;48.364;-1.224;2022-10-26T09:36:01;8.63;;;1.90;;
70543;SDS011;58097;48.364;-1.224;2022-10-26T09:38:32;11.43;;;3.00;;
70543;SDS011;58097;48.364;-1.224;2022-10-26T09:41:05;9.68;;;2.78;;
70543;SDS011;58097;48.364;-1.224;2022-10-26T09:46:21;17.42;;;2.33;;
70543;SDS011;58097;48.364;-1.224;2022-10-26T09:48:51;3.60;;;1.27;;
70543;SDS011;58097;48.364;-1.224;2022-10-26T09:51:20;7.53;;;1.30;;
70543;SDS011;58097;48.364;-1.224;2022-10-26T09:53:47;13.48;;;1.92;;
70543;SDS011;58097;48.364;-1.224;2022-10-26T09:56:14;8.38;;;1.75;;
70543;SDS011;58097;48.364;-1.224;2022-10-26T09:58:42;10.10;;;1.98;;
70543;SDS011;58097;48.364;-1.224;2022-10-26T10:01:31;10.15;;;1.73;;
70543;SDS011;58097;48.364;-1.224;2022-10-26T10:04:09;11.75;;;2.13;;
70543;SDS011;58097;48.364;-1.224;2022-10-26T10:09:10;9.30;;;2.30;;
70543;SDS011;58097;48.364;-1.224;2022-10-26T10:11:42;6.00;;;1.52;;
70543;SDS011;58097;48.364;-1.224;2022-10-26T10:14:19;8.25;;;1.88;;
70543;SDS011;58097;48.364;-1.224;2022-10-26T10:19:21;12.25;;;1.75;;
70543;SDS011;58097;48.364;-1.224;2022-10-26T10:21:58;8.25;;;1.30;;
70543;SDS011;58097;48.364;-1.224;2022-10-26T10:24:39;9.50;;;1.80;;
70543;SDS011;58097;48.364;-1.224;2022-10-26T10:29:41;5.55;;;1.60;;
70543;SDS011;58097;48.364;-1.224;2022-10-26T10:34:40;6.68;;;1.50;;
70543;SDS011;58097;48.364;-1.224;2022-10-26T10:37:12;6.53;;;1.25;;
70543;SDS011;58097;48.364;-1.224;2022-10-26T10:40:02;5.45;;;1.13;;
70543;SDS011;58097;48.364;-1.224;2022-10-26T10:42:30;5.68;;;1.02;;
70543;SDS011;58097;48.364;-1.224;2022-10-26T10:44:58;6.03;;;1.27;;
70543;SDS011;58097;48.364;-1.224;2022-10-26T10:47:32;4.32;;;1.20;;
70543;SDS011;58097;48.364;-1.224;2022-10-26T10:52:36;3.70;;;1.13;;
70543;SDS011;58097;48.364;-1.224;2022-10-26T11:00:28;2.58;;;0.85;;
70543;SDS011;58097;48.364;-1.224;2022-10-26T11:03:12;1.37;;;0.97;;
70543;SDS011;58097;48.364;-1.224;2022-10-26T11:11:16;3.38;;;0.95;;
70543;SDS011;58097;48.364;-1.224;2022-10-26T11:13:57;4.40;;;0.88;;
70543;SDS011;58097;48.364;-1.224;2022-10-26T11:16:35;3.20;;;0.80;;
70543;SDS011;58097;48.364;-1.224;2022-10-26T11:21:40;1.75;;;1.45;;
70543;SDS011;58097;48.364;-1.224;2022-10-26T11:32:21;2.83;;;1.20;;
70543;SDS011;58097;48.364;-1.224;2022-10-26T11:37:53;13.65;;;1.33;;
70543;SDS011;58097;48.364;-1.224;2022-10-26T11:43:32;1.90;;;0.85;;
70543;SDS011;58097;48.364;-1.224;2022-10-26T11:46:09;2.45;;;0.80;;
70543;SDS011;58097;48.364;-1.224;2022-10-26T11:49:01;5.30;;;0.98;;
70543;SDS011;58097;48.364;-1.224;2022-10-26T11:53:56;6.03;;;1.40;;
70543;SDS011;58097;48.364;-1.224;2022-10-26T11:56:30;3.90;;;1.13;;
70543;SDS011;58097;48.364;-1.224;2022-10-26T11:58:58;2.55;;;0.88;;
70543;SDS011;58097;48.364;-1.224;2022-10-26T12:01:24;3.47;;;0.93;;
70543;SDS011;58097;48.364;-1.224;2022-10-26T12:03:52;3.50;;;0.70;;
70543;SDS011;58097;48.364;-1.224;2022-10-26T12:06:21;5.57;;;0.80;;
70543;SDS011;58097;48.364;-1.224;2022-10-26T12:09:02;4.38;;;1.20;;
70543;SDS011;58097;48.364;-1.224;2022-10-26T12:17:13;3.03;;;1.67;;
70543;SDS011;58097;48.364;-1.224;2022-10-26T12:22:46;5.38;;;1.17;;
70543;SDS011;58097;48.364;-1.224;2022-10-26T12:37:56;6.60;;;1.88;;
70543;SDS011;58097;48.364;-1.224;2022-10-26T12:40:38;8.05;;;2.30;;
70543;SDS011;58097;48.364;-1.224;2022-10-26T12:45:46;8.35;;;1.45;;
70543;SDS011;58097;48.364;-1.224;2022-10-26T12:48:40;7.60;;;1.80;;
70543;SDS011;58097;48.364;-1.224;2022-10-26T12:56:55;9.55;;;1.92;;
70543;SDS011;58097;48.364;-1.224;2022-10-26T13:07:34;5.45;;;1.38;;
70543;SDS011;58097;48.364;-1.224;2022-10-26T13:10:03;2.75;;;1.00;;
70543;SDS011;58097;48.364;-1.224;2022-10-26T13:15:17;5.18;;;1.58;;
70543;SDS011;58097;48.364;-1.224;2022-10-26T13:17:51;4.18;;;1.38;;
70543;SDS011;58097;48.364;-1.224;2022-10-26T13:20:31;3.65;;;1.23;;
70543;SDS011;58097;48.364;-1.224;2022-10-26T13:23:00;6.45;;;1.88;;
70543;SDS011;58097;48.364;-1.224;2022-10-26T13:25:28;4.60;;;1.27;;
70543;SDS011;58097;48.364;-1.224;2022-10-26T13:28:05;9.63;;;1.67;;
70543;SDS011;58097;48.364;-1.224;2022-10-26T13:30:51;7.00;;;1.23;;
70543;SDS011;58097;48.364;-1.224;2022-10-26T13:33:18;1.90;;;1.27;;
70543;SDS011;58097;48.364;-1.224;2022-10-26T13:35:48;2.83;;;1.65;;
70543;SDS011;58097;48.364;-1.224;2022-10-26T13:38:17;3.55;;;1.30;;
70543;SDS011;58097;48.364;-1.224;2022-10-26T13:40:45;11.38;;;1.40;;
70543;SDS011;58097;48.364;-1.224;2022-10-26T13:43:21;12.40;;;1.73;;
70543;SDS011;58097;48.364;-1.224;2022-10-26T13:45:55;5.88;;;1.38;;
70543;SDS011;58097;48.364;-1.224;2022-10-26T13:48:38;4.13;;;0.95;;
70543;SDS011;58097;48.364;-1.224;2022-10-26T13:54:09;3.00;;;1.00;;
70543;SDS011;58097;48.364;-1.224;2022-10-26T13:56:44;6.65;;;1.10;;
70543;SDS011;58097;48.364;-1.224;2022-10-26T13:59:32;4.55;;;1.30;;
70543;SDS011;58097;48.364;-1.224;2022-10-26T14:02:25;6.07;;;1.23;;
70543;SDS011;58097;48.364;-1.224;2022-10-26T14:05:11;1.92;;;0.80;;
70543;SDS011;58097;48.364;-1.224;2022-10-26T14:13:08;4.35;;;1.10;;
70543;SDS011;58097;48.364;-1.224;2022-10-26T14:15:41;3.92;;;1.20;;
70543;SDS011;58097;48.364;-1.224;2022-10-26T14:18:16;5.00;;;1.52;;
70543;SDS011;58097;48.364;-1.224;2022-10-26T14:20:59;5.32;;;1.55;;
70543;SDS011;58097;48.364;-1.224;2022-10-26T14:23:36;4.13;;;1.48;;
70543;SDS011;58097;48.364;-1.224;2022-10-26T14:26:17;10.45;;;2.20;;
70543;SDS011;58097;48.364;-1.224;2022-10-26T14:28:46;4.53;;;1.35;;
70543;SDS011;58097;48.364;-1.224;2022-10-26T14:33:49;4.25;;;1.85;;
70543;SDS011;58097;48.364;-1.224;2022-10-26T14:36:15;5.55;;;2.83;;
70543;SDS011;58097;48.364;-1.224;2022-10-26T14:38:44;8.75;;;2.65;;
70543;SDS011;58097;48.364;-1.224;2022-10-26T14:41:11;8.13;;;2.80;;
70543;SDS011;58097;48.364;-1.224;2022-10-26T14:43:40;5.63;;;1.70;;
70543;SDS011;58097;48.364;-1.224;2022-10-26T14:46:05;4.88;;;2.03;;
70543;SDS011;58097;48.364;-1.224;2022-10-26T14:48:40;4.72;;;1.10;;
70543;SDS011;58097;48.364;-1.224;2022-10-26T14:51:17;6.53;;;1.42;;
70543;SDS011;58097;48.364;-1.224;2022-10-26T14:53:50;9.85;;;1.60;;
70543;SDS011;58097;48.364;-1.224;2022-10-26T14:58:46;7.53;;;1.75;;
70543;SDS011;58097;48.364;-1.224;2022-10-26T15:03:47;4.10;;;1.48;;
70543;SDS011;58097;48.364;-1.224;2022-10-26T15:06:36;7.43;;;1.85;;
70543;SDS011;58097;48.364;-1.224;2022-10-26T15:09:04;3.67;;;1.40;;
70543;SDS011;58097;48.364;-1.224;2022-10-26T15:11:31;4.78;;;1.30;;
70543;SDS011;58097;48.364;-1.224;2022-10-26T15:13:57;2.90;;;1.00;;
70543;SDS011;58097;48.364;-1.224;2022-10-26T15:16:24;4.47;;;1.42;;
70543;SDS011;58097;48.364;-1.224;2022-10-26T15:18:53;5.70;;;1.20;;
70543;SDS011;58097;48.364;-1.224;2022-10-26T15:21:44;5.65;;;1.35;;
70543;SDS011;58097;48.364;-1.224;2022-10-26T15:27:17;7.15;;;1.40;;
70543;SDS011;58097;48.364;-1.224;2022-10-26T15:29:47;2.35;;;1.27;;
70543;SDS011;58097;48.364;-1.224;2022-10-26T15:32:35;10.98;;;1.95;;
70543;SDS011;58097;48.364;-1.224;2022-10-26T15:35:20;2.22;;;1.30;;
70543;SDS011;58097;48.364;-1.224;2022-10-26T15:37:49;3.90;;;1.30;;
70543;SDS011;58097;48.364;-1.224;2022-10-26T15:40:16;5.18;;;1.70;;
70543;SDS011;58097;48.364;-1.224;2022-10-26T15:42:42;6.20;;;1.95;;
70543;SDS011;58097;48.364;-1.224;2022-10-26T15:45:19;4.50;;;1.38;;
70543;SDS011;58097;48.364;-1.224;2022-10-26T15:47:53;2.10;;;1.10;;
70543;SDS011;58097;48.364;-1.224;2022-10-26T15:50:21;3.58;;;1.40;;
70543;SDS011;58097;48.364;-1.224;2022-10-26T15:52:48;5.00;;;1.40;;
70543;SDS011;58097;48.364;-1.224;2022-10-26T15:55:18;2.63;;;1.33;;
70543;SDS011;58097;48.364;-1.224;2022-10-26T15:57:44;4.72;;;1.35;;
70543;SDS011;58097;48.364;-1.224;2022-10-26T16:00:12;5.03;;;1.55;;
70543;SDS011;58097;48.364;-1.224;2022-10-26T16:02:40;3.67;;;1.35;;
70543;SDS011;58097;48.364;-1.224;2022-10-26T16:05:06;3.72;;;1.75;;
70543;SDS011;58097;48.364;-1.224;2022-10-26T16:07:32;6.95;;;2.60;;
70543;SDS011;58097;48.364;-1.224;2022-10-26T16:09:58;3.50;;;1.50;;
70543;SDS011;58097;48.364;-1.224;2022-10-26T16:12:23;3.78;;;1.17;;
70543;SDS011;58097;48.364;-1.224;2022-10-26T16:14:49;5.25;;;1.42;;
70543;SDS011;58097;48.364;-1.224;2022-10-26T16:17:14;2.63;;;1.55;;
70543;SDS011;58097;48.364;-1.224;2022-10-26T16:19:39;5.70;;;1.40;;
70543;SDS011;58097;48.364;-1.224;2022-10-26T16:22:05;2.13;;;1.13;;
70543;SDS011;58097;48.364;-1.224;2022-10-26T16:24:30;3.75;;;1.30;;
70543;SDS011;58097;48.364;-1.224;2022-10-26T16:26:56;5.90;;;1.63;;
70543;SDS011;58097;48.364;-1.224;2022-10-26T16:29:22;2.63;;;1.45;;
70543;SDS011;58097;48.364;-1.224;2022-10-26T16:31:48;4.85;;;1.67;;
70543;SDS011;58097;48.364;-1.224;2022-10-26T16:34:13;2.08;;;1.10;;
70543;SDS011;58097;48.364;-1.224;2022-10-26T16:36:38;9.90;;;1.40;;
70543;SDS011;58097;48.364;-1.224;2022-10-26T16:39:04;3.08;;;1.30;;
70543;SDS011;58097;48.364;-1.224;2022-10-26T16:41:31;2.10;;;1.30;;
70543;SDS011;58097;48.364;-1.224;2022-10-26T16:43:56;5.55;;;1.75;;
70543;SDS011;58097;48.364;-1.224;2022-10-26T16:46:22;2.35;;;1.33;;
70543;SDS011;58097;48.364;-1.224;2022-10-26T16:48:49;3.00;;;0.93;;
70543;SDS011;58097;48.364;-1.224;2022-10-26T16:51:16;4.63;;;1.35;;
70543;SDS011;58097;48.364;-1.224;2022-10-26T16:53:52;4.68;;;1.50;;
70543;SDS011;58097;48.364;-1.224;2022-10-26T16:56:22;2.72;;;1.20;;
70543;SDS011;58097;48.364;-1.224;2022-10-26T16:58:50;4.07;;;1.42;;
70543;SDS011;58097;48.364;-1.224;2022-10-26T17:01:16;3.67;;;1.33;;
70543;SDS011;58097;48.364;-1.224;2022-10-26T17:03:45;3.83;;;1.80;;
70543;SDS011;58097;48.364;-1.224;2022-10-26T17:06:12;5.47;;;2.25;;
70543;SDS011;58097;48.364;-1.224;2022-10-26T17:08:38;3.83;;;1.58;;
70543;SDS011;58097;48.364;-1.224;2022-10-26T17:13:31;5.90;;;1.25;;
70543;SDS011;58097;48.364;-1.224;2022-10-26T17:16:06;3.50;;;1.40;;
70543;SDS011;58097;48.364;-1.224;2022-10-26T17:18:34;5.35;;;1.55;;
70543;SDS011;58097;48.364;-1.224;2022-10-26T17:20:59;3.85;;;1.73;;
70543;SDS011;58097;48.364;-1.224;2022-10-26T17:23:25;2.40;;;2.00;;
70543;SDS011;58097;48.364;-1.224;2022-10-26T17:25:50;3.88;;;1.83;;
70543;SDS011;58097;48.364;-1.224;2022-10-26T17:28:16;8.70;;;1.70;;
70543;SDS011;58097;48.364;-1.224;2022-10-26T17:30:41;2.55;;;1.50;;
70543;SDS011;58097;48.364;-1.224;2022-10-26T17:33:08;4.90;;;1.80;;